createdAt,value
2022-08-12T09:47:29.689Z,26.46
2022-08-12T09:50:01.361Z,26.57
2022-08-12T09:52:42.356Z,26.62
2022-08-12T09:56:07.378Z,26.45
2022-08-12T09:58:45.562Z,26.23
2022-08-12T10:00:52.658Z,26.02
2022-08-12T10:03:32.283Z,25.92
2022-08-12T10:06:28.052Z,25.90
2022-08-12T10:08:52.495Z,26.03
2022-08-12T10:12:10.019Z,26.20
2022-08-12T10:14:34.520Z,26.31
2022-08-12T10:17:08.710Z,26.41
2022-08-12T10:19:40.050Z,26.53
2022-08-12T10:22:17.091Z,26.50
2022-08-12T10:25:22.627Z,26.43
2022-08-12T10:28:16.316Z,26.32
2022-08-12T10:30:58.969Z,26.25
2022-08-12T10:33:31.963Z,26.35
2022-08-12T10:36:02.137Z,26.40
2022-08-12T10:38:37.333Z,26.40
2022-08-12T10:41:57.174Z,26.32
2022-08-12T10:44:17.406Z,27.28
2022-08-12T10:46:49.677Z,27.91
2022-08-12T10:50:07.053Z,28.40
2022-08-12T10:52:33.960Z,29.00
2022-08-12T10:54:56.346Z,29.24
2022-08-12T10:58:13.657Z,29.31
2022-08-12T11:00:34.706Z,28.93
2022-08-12T11:04:20.675Z,28.72
2022-08-12T11:07:07.347Z,28.58
2022-08-12T11:08:43.362Z,28.48
2022-08-12T11:11:27.649Z,28.24
2022-08-12T11:14:13.081Z,27.98
2022-08-12T11:17:34.586Z,27.90
2022-08-12T11:19:45.696Z,27.79
2022-08-12T11:22:14.371Z,27.62
2022-08-12T11:24:42.289Z,27.47
2022-08-12T11:27:19.219Z,27.39
2022-08-12T11:30:02.566Z,27.27
2022-08-12T11:32:39.211Z,27.31
2022-08-12T11:35:08.807Z,27.32
2022-08-12T11:37:59.339Z,27.22
2022-08-12T11:40:28.694Z,27.12
2022-08-12T11:43:19.188Z,27.01
2022-08-12T11:45:47.981Z,26.91
2022-08-12T11:48:26.636Z,26.93
2022-08-12T11:50:56.017Z,26.88
2022-08-12T11:53:56.546Z,26.87
2022-08-12T11:56:12.030Z,26.91
2022-08-12T12:01:59.150Z,27.06
2022-08-12T12:04:25.884Z,27.02
2022-08-12T12:07:07.224Z,27.07
2022-08-12T12:09:52.795Z,27.07
2022-08-12T12:12:25.405Z,27.00
2022-08-12T12:14:54.837Z,26.98
2022-08-12T12:17:25.151Z,26.91
2022-08-12T12:19:55.153Z,26.89
2022-08-12T12:22:28.564Z,26.89
2022-08-12T12:24:59.404Z,27.01
2022-08-12T12:28:05.079Z,27.04
2022-08-12T12:30:38.393Z,27.05
2022-08-12T12:33:08.346Z,27.03
2022-08-12T12:36:18.238Z,27.05
2022-08-12T12:38:26.391Z,26.98
2022-08-12T12:40:54.905Z,26.86
2022-08-12T12:43:42.421Z,26.70
2022-08-12T12:46:11.024Z,26.55
2022-08-12T12:48:43.725Z,26.46
2022-08-12T12:51:48.202Z,26.49
2022-08-12T12:54:09.944Z,26.46
2022-08-12T12:56:43.098Z,26.45
2022-08-12T12:59:33.815Z,26.49
2022-08-12T13:02:07.670Z,26.51
2022-08-12T13:04:37.599Z,26.54
2022-08-12T13:07:06.856Z,26.67
2022-08-12T13:09:36.332Z,26.76
2022-08-12T13:12:10.414Z,26.81
2022-08-12T13:14:39.849Z,26.86
2022-08-12T13:17:14.691Z,26.87
2022-08-12T13:19:46.609Z,26.87
2022-08-12T13:22:20.288Z,26.88
2022-08-12T13:24:52.124Z,26.93
2022-08-12T13:27:35.165Z,26.99
2022-08-12T13:30:10.937Z,26.99
2022-08-12T13:32:42.042Z,27.03
2022-08-12T13:35:19.686Z,27.10
2022-08-12T13:37:59.303Z,27.18
2022-08-12T13:40:33.624Z,27.20
2022-08-12T13:43:06.410Z,27.13
2022-08-12T13:45:35.632Z,27.04
2022-08-12T13:48:06.843Z,26.93
2022-08-12T13:50:40.046Z,26.93
2022-08-12T13:53:24.240Z,26.86
2022-08-12T13:55:59.890Z,26.68
2022-08-12T13:58:33.060Z,26.35
2022-08-12T14:01:06.191Z,26.01
2022-08-12T14:03:50.536Z,25.66
2022-08-12T14:06:19.289Z,25.50
2022-08-12T14:08:51.369Z,25.47
2022-08-12T14:11:25.461Z,25.53
2022-08-12T14:14:06.326Z,25.59
2022-08-12T14:16:48.406Z,25.67
2022-08-12T14:19:25.636Z,25.71
2022-08-12T14:22:01.633Z,25.77
2022-08-12T14:24:40.296Z,25.84
2022-08-12T14:27:12.268Z,25.88
2022-08-12T14:30:04.870Z,25.94
2022-08-12T14:32:35.965Z,25.98
2022-08-12T14:35:08.964Z,25.98
2022-08-12T14:37:56.975Z,25.98
2022-08-12T14:40:30.936Z,25.93
2022-08-12T14:42:59.946Z,25.88
2022-08-12T14:45:44.701Z,25.92
2022-08-12T14:48:19.299Z,25.96
2022-08-12T14:52:16.221Z,25.97
2022-08-12T14:55:38.529Z,25.98
2022-08-12T14:59:58.408Z,26.06
2022-08-12T15:02:26.622Z,26.12
2022-08-12T15:05:03.778Z,26.15
2022-08-12T15:07:33.383Z,26.23
2022-08-12T15:10:31.915Z,26.22
2022-08-12T15:13:06.749Z,26.22
2022-08-12T15:15:45.439Z,26.23
2022-08-12T15:18:20.982Z,26.18
2022-08-12T15:20:51.920Z,26.11
2022-08-12T15:23:23.378Z,26.03
2022-08-12T15:26:02.438Z,25.91
2022-08-12T15:28:34.675Z,25.84
2022-08-12T15:31:09.613Z,25.89
2022-08-12T15:33:52.719Z,25.85
2022-08-12T15:36:40.747Z,25.77
2022-08-12T15:39:16.774Z,25.69
2022-08-12T15:41:50.888Z,25.67
2022-08-12T15:44:37.856Z,25.60
2022-08-12T15:47:10.836Z,25.55
2022-08-12T15:49:55.019Z,25.56
2022-08-12T15:52:29.214Z,25.52
2022-08-12T15:55:04.929Z,25.41
2022-08-12T15:57:33.813Z,25.31
2022-08-12T16:00:06.638Z,25.18
2022-08-12T16:02:50.713Z,25.06
2022-08-12T16:06:10.429Z,24.91
2022-08-12T16:08:18.723Z,24.63
2022-08-12T16:10:53.270Z,24.29
2022-08-12T16:13:32.803Z,23.99
2022-08-12T16:16:22.733Z,23.70
2022-08-12T16:19:00.784Z,23.39
2022-08-12T16:21:52.336Z,23.11
2022-08-12T16:24:19.179Z,22.88
2022-08-12T16:26:51.309Z,22.63
2022-08-12T16:29:38.605Z,22.52
2022-08-12T16:32:24.018Z,22.39
2022-08-12T16:34:55.451Z,22.25
2022-08-12T16:37:32.519Z,22.23
2022-08-12T16:40:04.925Z,22.25
2022-08-12T16:42:42.243Z,22.39
2022-08-12T16:45:32.137Z,22.57
2022-08-12T16:48:34.029Z,22.72
2022-08-12T16:51:11.892Z,22.70
2022-08-12T16:53:44.437Z,22.46
2022-08-12T16:56:15.523Z,22.50
2022-08-12T16:58:43.871Z,22.69
2022-08-12T17:01:15.849Z,22.82
2022-08-12T17:03:59.894Z,22.90
2022-08-12T17:06:28.092Z,22.90
2022-08-12T17:09:03.066Z,22.94
2022-08-12T17:11:31.550Z,22.89
2022-08-12T17:13:59.853Z,22.83
2022-08-12T17:16:30.266Z,22.78
2022-08-12T17:19:03.018Z,22.82
2022-08-12T17:21:40.514Z,22.82
2022-08-12T17:24:15.079Z,22.81
2022-08-12T17:26:45.443Z,22.83
2022-08-12T17:29:32.055Z,22.79
2022-08-12T17:32:11.214Z,22.74
2022-08-12T17:34:59.942Z,22.74
2022-08-12T17:37:28.513Z,22.76
2022-08-12T17:40:12.313Z,22.76
2022-08-12T17:42:47.767Z,22.77
2022-08-12T17:45:20.011Z,22.79
2022-08-12T17:48:01.164Z,22.80
2022-08-12T17:50:36.066Z,22.82
2022-08-12T17:53:04.730Z,22.85
2022-08-12T17:55:43.401Z,22.83
2022-08-12T17:58:21.428Z,22.84
2022-08-12T18:00:50.676Z,22.87
2022-08-12T18:04:13.905Z,22.86
2022-08-12T18:06:13.751Z,22.93
2022-08-12T18:08:54.383Z,22.96
2022-08-12T18:12:05.608Z,22.97
2022-08-12T18:14:37.238Z,22.92
2022-08-12T18:17:08.627Z,22.85
2022-08-12T18:20:06.320Z,22.82
2022-08-12T18:22:31.459Z,22.83
2022-08-12T18:25:04.118Z,22.89
2022-08-12T18:27:44.358Z,22.93
2022-08-12T18:30:21.096Z,22.97
2022-08-12T18:33:03.240Z,22.99
2022-08-12T18:35:47.586Z,22.99
2022-08-12T18:38:24.637Z,22.96
2022-08-12T18:41:21.101Z,22.96
2022-08-12T18:43:59.935Z,22.95
2022-08-12T18:46:35.019Z,22.93
2022-08-12T18:49:18.835Z,22.91
2022-08-12T18:51:55.485Z,22.93
2022-08-12T18:54:35.796Z,22.95
2022-08-12T18:57:16.358Z,22.94
2022-08-12T19:00:02.465Z,22.90
2022-08-12T19:02:40.628Z,22.89
2022-08-12T19:05:11.658Z,22.89
2022-08-12T19:07:49.223Z,22.91
2022-08-12T19:10:26.407Z,22.86
2022-08-12T19:13:21.174Z,22.82
2022-08-12T19:15:54.761Z,22.80
2022-08-12T19:18:30.079Z,22.77
2022-08-12T19:21:06.586Z,22.74
2022-08-12T19:23:40.259Z,22.73
2022-08-12T19:26:10.845Z,22.71
2022-08-12T19:28:41.304Z,22.71
2022-08-12T19:31:55.733Z,22.68
2022-08-12T19:35:32.829Z,22.65
2022-08-12T19:37:38.600Z,22.62
2022-08-12T19:40:31.405Z,22.63
2022-08-12T19:43:17.305Z,22.59
2022-08-12T19:45:51.574Z,22.50
2022-08-12T19:48:21.845Z,22.41
2022-08-12T19:50:53.020Z,22.33
2022-08-12T19:53:25.273Z,22.30
2022-08-12T19:55:57.295Z,22.28
2022-08-12T19:58:27.001Z,22.30
2022-08-12T20:00:55.945Z,22.31
2022-08-12T20:03:38.297Z,22.30
2022-08-12T20:06:13.932Z,22.29
2022-08-12T20:08:48.762Z,22.29
2022-08-12T20:12:11.962Z,22.28
2022-08-12T20:14:18.576Z,22.25
2022-08-12T20:16:57.464Z,22.25
2022-08-12T20:20:05.687Z,22.25
2022-08-12T20:22:29.855Z,22.22
2022-08-12T20:25:07.279Z,22.26
2022-08-12T20:28:04.908Z,22.29
2022-08-12T20:30:52.710Z,22.26
2022-08-12T20:33:18.656Z,22.26
2022-08-12T20:36:06.353Z,22.29
2022-08-12T20:38:40.076Z,22.29
2022-08-12T20:41:16.128Z,22.32
2022-08-12T20:43:44.837Z,22.31
2022-08-12T20:46:14.355Z,22.30
2022-08-12T20:48:44.405Z,22.22
2022-08-12T20:51:19.216Z,22.18
2022-08-12T20:53:58.179Z,22.15
2022-08-12T20:56:34.555Z,22.03
2022-08-12T20:59:19.824Z,22.02
2022-08-12T21:01:49.251Z,22.08
2022-08-12T21:04:43.849Z,22.13
2022-08-12T21:07:14.442Z,22.18
2022-08-12T21:09:49.244Z,22.23
2022-08-12T21:12:30.962Z,22.21
2022-08-12T21:15:24.336Z,22.20
2022-08-12T21:18:09.861Z,22.23
2022-08-12T21:20:56.078Z,22.29
2022-08-12T21:23:23.976Z,22.37
2022-08-12T21:25:56.291Z,22.36
2022-08-12T21:28:27.826Z,22.32
2022-08-12T21:32:35.173Z,22.34
2022-08-12T21:34:08.218Z,22.38
2022-08-12T21:36:48.117Z,22.41
2022-08-12T21:39:21.194Z,22.44
2022-08-12T21:41:52.293Z,22.49
2022-08-12T21:45:46.181Z,22.50
2022-08-12T21:47:22.466Z,22.43
2022-08-12T21:50:03.539Z,22.28
2022-08-12T21:52:37.374Z,22.17
2022-08-12T21:55:18.474Z,22.11
2022-08-12T21:57:54.301Z,22.07
2022-08-12T22:00:36.750Z,21.93
2022-08-12T22:04:04.447Z,21.81
2022-08-12T22:06:42.768Z,21.65
2022-08-12T22:09:15.635Z,21.57
2022-08-12T22:11:59.224Z,21.50
2022-08-12T22:14:30.785Z,21.41
2022-08-12T22:17:00.597Z,21.36
2022-08-12T22:19:28.864Z,21.26
2022-08-12T22:22:04.049Z,21.22
2022-08-12T22:24:34.185Z,21.16
2022-08-12T22:27:07.979Z,21.08
2022-08-12T22:30:09.677Z,21.01
2022-08-12T22:32:50.762Z,20.92
2022-08-12T22:35:55.270Z,20.86
2022-08-12T22:38:24.861Z,20.84
2022-08-12T22:41:01.713Z,20.89
2022-08-12T22:44:00.953Z,20.91
2022-08-12T22:46:32.933Z,20.93
2022-08-12T22:49:01.075Z,21.00
2022-08-12T22:51:42.932Z,21.09
2022-08-12T22:54:35.591Z,21.23
2022-08-12T22:57:05.688Z,21.34
2022-08-12T22:59:55.750Z,21.41
2022-08-12T23:02:28.799Z,21.43
2022-08-12T23:05:10.379Z,21.48
2022-08-12T23:07:58.849Z,21.48
2022-08-12T23:10:27.839Z,21.53
2022-08-12T23:13:14.467Z,21.62
2022-08-12T23:15:47.790Z,21.65
2022-08-12T23:18:23.718Z,21.60
2022-08-12T23:21:01.322Z,21.56
2022-08-12T23:23:29.246Z,21.50
2022-08-12T23:26:17.653Z,21.53
2022-08-12T23:29:26.018Z,21.53
2022-08-12T23:32:03.566Z,21.51
2022-08-12T23:34:37.168Z,21.55
2022-08-12T23:37:07.227Z,21.58
2022-08-12T23:40:06.616Z,21.58
2022-08-12T23:42:30.917Z,21.61
2022-08-12T23:45:08.959Z,21.62
2022-08-12T23:47:53.088Z,21.66
2022-08-12T23:50:22.743Z,21.64
2022-08-12T23:53:05.395Z,21.68
2022-08-12T23:55:40.717Z,21.69
2022-08-12T23:58:23.224Z,21.65
